Time;durP1;ratioP1;P1;durP2;ratioP2;P2;SDS_P1;SDS_P2;PMS_P1;PMS_P2;Temp;Humidity;BMP_temperature;BMP_pressure;BME280_temperature;BME280_humidity;BME280_pressure;Samples;Min_cycle;Max_cycle;Signal;HPM_P1;HPM_P2
2023/10/01 00:01:44;;;;;;;5.83;2.30;;;;;;;15.21;70.69;101676.03;5113832;28;20292;-80
2023/10/01 00:04:12;;;;;;;4.30;2.60;;;;;;;15.16;70.85;101675.47;5101689;28;20313;-80
2023/10/01 00:06:39;;;;;;;5.37;2.47;;;;;;;15.16;70.99;101673.66;5110642;28;20237;-80
2023/10/01 00:09:06;;;;;;;4.17;2.47;;;;;;;15.16;71.14;101668.28;5103214;28;20205;-80
2023/10/01 00:11:35;;;;;;;5.97;2.40;;;;;;;15.16;70.75;101665.59;5110704;28;20571;-80
2023/10/01 00:14:03;;;;;;;4.63;2.40;;;;;;;15.18;71.23;101660.13;5103276;28;20288;-80
2023/10/01 00:16:30;;;;;;;7.10;2.87;;;;;;;15.15;70.91;101665.69;5108923;28;20206;-80
2023/10/01 00:18:56;;;;;;;4.53;2.67;;;;;;;15.14;70.76;101662.16;5110360;28;20686;-80
2023/10/01 00:21:23;;;;;;;5.17;2.40;;;;;;;15.17;70.63;101666.47;5111899;28;20676;-81
2023/10/01 00:23:51;;;;;;;3.40;2.20;;;;;;;15.16;70.88;101659.38;5103713;28;20594;-80
2023/10/01 00:26:18;;;;;;;5.03;2.60;;;;;;;15.15;71.30;101653.16;5105241;28;20209;-80
2023/10/01 00:28:46;;;;;;;4.23;2.40;;;;;;;15.15;71.19;101652.28;5112784;28;20204;-80
2023/10/01 00:31:13;;;;;;;3.63;2.33;;;;;;;15.12;71.45;101656.03;5110497;28;20693;-80
2023/10/01 00:33:41;;;;;;;4.27;2.40;;;;;;;15.12;71.10;101649.78;5108151;28;20229;-81
2023/10/01 00:36:07;;;;;;;6.17;2.30;;;;;;;15.12;70.87;101647.13;5108998;28;20266;-80
2023/10/01 00:38:34;;;;;;;4.17;2.50;;;;;;;15.11;70.90;101650.75;5111896;28;20230;-80
2023/10/01 00:41:00;;;;;;;6.90;2.73;;;;;;;15.09;70.89;101658.03;5111227;28;20790;-80
2023/10/01 00:43:29;;;;;;;3.83;2.53;;;;;;;15.08;71.09;101662.53;5104792;28;20218;-80
2023/10/01 00:45:57;;;;;;;3.27;2.40;;;;;;;15.08;71.19;101662.53;5105866;28;20235;-80
2023/10/01 00:48:24;;;;;;;5.60;2.20;;;;;;;15.06;71.41;101652.88;5105912;28;20224;-80
2023/10/01 00:50:52;;;;;;;5.00;2.50;;;;;;;15.06;71.53;101651.06;5110230;28;20674;-80
2023/10/01 00:53:19;;;;;;;4.63;2.10;;;;;;;15.08;71.20;101650.97;5103864;28;20246;-80
2023/10/01 00:55:45;;;;;;;6.53;2.47;;;;;;;15.06;71.33;101660.94;5104140;28;20604;-80
2023/10/01 00:58:12;;;;;;;3.93;2.03;;;;;;;15.05;71.51;101654.69;5107166;28;20205;-80
2023/10/01 01:00:38;;;;;;;6.10;2.67;;;;;;;15.05;71.60;101649.34;5103914;28;20258;-81
2023/10/01 01:03:08;;;;;;;4.47;2.53;;;;;;;15.03;71.81;101659.34;5108099;28;20238;-80
2023/10/01 01:05:36;;;;;;;6.03;2.27;;;;;;;15.03;71.54;101653.97;5114023;28;20223;-80
2023/10/01 01:08:20;;;;;;;2.97;2.10;;;;;;;15.02;71.43;101638.84;5108071;28;20235;-80
2023/10/01 01:10:50;;;;;;;4.90;2.20;;;;;;;15.02;71.55;101630.78;5106488;28;20224;-80
2023/10/01 01:13:17;;;;;;;5.50;2.23;;;;;;;15.04;71.39;101639.59;5112622;28;20225;-79
2023/10/01 01:15:46;;;;;;;4.77;2.60;;;;;;;15.04;71.35;101641.41;5113083;28;20228;-80
2023/10/01 01:18:14;;;;;;;3.93;2.43;;;;;;;15.01;71.46;101638.94;5110554;28;20333;-80
2023/10/01 01:20:45;;;;;;;5.03;2.47;;;;;;;15.00;71.51;101639.88;5107647;28;20212;-80
2023/10/01 01:23:16;;;;;;;4.93;2.20;;;;;;;15.01;71.47;101628.19;5108071;28;20226;-81
2023/10/01 01:25:44;;;;;;;6.27;2.27;;;;;;;14.98;71.50;101629.25;5108372;28;20662;-80
2023/10/01 01:28:12;;;;;;;5.63;2.63;;;;;;;14.96;71.80;101633.84;5108509;28;20234;-80
2023/10/01 01:30:42;;;;;;;5.33;2.63;;;;;;;14.94;71.65;101633.97;5106013;28;20253;-82
2023/10/01 01:33:08;;;;;;;4.27;2.13;;;;;;;14.98;71.75;101620.34;5103374;28;20640;-80
2023/10/01 01:35:35;;;;;;;6.43;2.27;;;;;;;15.00;71.37;101616.59;5104214;28;20209;-80
2023/10/01 01:38:04;;;;;;;5.57;2.40;;;;;;;14.99;71.84;101628.28;5108026;28;20213;-81
2023/10/01 01:40:36;;;;;;;7.77;2.70;;;;;;;14.96;71.68;101646.41;5104995;28;20623;-80
2023/10/01 01:43:04;;;;;;;5.13;2.10;;;;;;;14.96;71.71;101641.03;5105144;28;20269;-81
2023/10/01 01:45:33;;;;;;;4.00;2.00;;;;;;;14.95;71.54;101634.81;5102936;28;20286;-81
2023/10/01 01:48:00;;;;;;;5.43;2.57;;;;;;;14.96;71.62;101633.00;5101474;28;20222;-81
2023/10/01 01:50:27;;;;;;;5.57;2.23;;;;;;;14.97;71.78;101640.09;5103703;28;20207;-80
2023/10/01 01:52:56;;;;;;;8.30;2.83;;;;;;;14.94;71.93;101636.63;5108501;28;20233;-79
2023/10/01 01:55:26;;;;;;;5.37;1.97;;;;;;;14.93;72.06;101632.22;5104894;28;20213;-80
2023/10/01 01:58:06;;;;;;;3.90;2.30;;;;;;;14.95;71.98;101634.81;5110286;28;20214;-80
2023/10/01 02:00:34;;;;;;;5.20;2.50;;;;;;;14.98;71.73;101631.94;5105665;28;20202;-80
2023/10/01 02:03:10;;;;;;;4.93;2.47;;;;;;;14.94;71.82;101625.06;5097670;28;20274;-80
2023/10/01 02:05:37;;;;;;;5.30;2.70;;;;;;;14.95;71.91;101608.00;5111053;28;20206;-80
2023/10/01 02:08:08;;;;;;;4.93;2.23;;;;;;;14.97;71.85;101621.31;5108377;28;20244;-80
2023/10/01 02:10:44;;;;;;;4.33;2.23;;;;;;;14.96;72.28;101617.75;5103667;28;20664;-80
2023/10/01 02:13:13;;;;;;;4.77;2.77;;;;;;;14.95;72.26;101621.41;5108284;28;20293;-80
2023/10/01 02:15:40;;;;;;;5.50;2.13;;;;;;;14.95;72.35;101613.34;5105462;28;20198;-80
2023/10/01 02:18:09;;;;;;;3.47;2.30;;;;;;;14.99;72.43;101616.72;5103616;28;20204;-80
2023/10/01 02:20:35;;;;;;;4.33;2.10;;;;;;;14.97;71.96;101619.50;5109796;28;20202;-81
2023/10/01 02:23:03;;;;;;;5.53;2.47;;;;;;;14.95;72.29;101610.69;5108859;28;20608;-80
2023/10/01 02:25:37;;;;;;;4.73;2.07;;;;;;;14.93;71.91;101607.22;5105804;28;20209;-80
2023/10/01 02:28:11;;;;;;;3.87;2.80;;;;;;;14.92;72.07;101614.41;5103311;28;20631;-80
2023/10/01 02:30:41;;;;;;;4.83;2.77;;;;;;;14.92;72.44;101603.69;5104006;28;20751;-80
2023/10/01 02:33:18;;;;;;;4.43;2.50;;;;;;;14.93;72.04;101607.22;5102179;28;20769;-79
2023/10/01 02:35:48;;;;;;;6.33;2.83;;;;;;;14.91;71.92;101606.47;5109708;28;20208;-80
2023/10/01 02:41:02;;;;;;;4.30;2.60;;;;;;;14.86;72.42;101611.31;5102847;28;20244;-80
2023/10/01 02:43:33;;;;;;;4.97;2.40;;;;;;;14.86;72.47;101611.31;5107946;28;20226;-80
2023/10/01 02:46:04;;;;;;;4.83;2.40;;;;;;;14.85;72.71;101612.25;5100035;28;20332;-80
2023/10/01 02:48:31;;;;;;;3.73;2.30;;;;;;;14.85;72.81;101598.84;5109408;28;20213;-80
2023/10/01 02:50:56;;;;;;;4.77;2.47;;;;;;;14.86;72.50;101600.56;5106890;28;20217;-80
2023/10/01 02:53:25;;;;;;;4.83;2.70;;;;;;;14.84;72.75;101595.31;5106583;28;20245;-81
2023/10/01 02:55:51;;;;;;;4.13;2.30;;;;;;;14.85;72.61;101596.16;5105100;28;20625;-82
2023/10/01 02:58:20;;;;;;;4.20;2.53;;;;;;;14.84;72.86;101597.13;5102057;28;20202;-81
2023/10/01 03:00:46;;;;;;;8.33;2.80;;;;;;;14.85;72.94;101606.91;5099894;28;20611;-80
2023/10/01 03:03:18;;;;;;;6.53;2.47;;;;;;;14.84;72.84;101599.81;5101648;28;20226;-81
2023/10/01 03:05:46;;;;;;;4.87;2.40;;;;;;;14.83;72.76;101592.72;5107339;28;20581;-81
2023/10/01 03:08:40;;;;;;;4.60;2.57;;;;;;;14.85;72.78;101597.03;5108947;28;20253;-80
2023/10/01 03:11:08;;;;;;;5.63;2.90;;;;;;;14.85;73.02;101590.81;5108783;28;20208;-81
2023/10/01 03:13:36;;;;;;;2.83;2.47;;;;;;;14.86;72.84;101573.75;5106408;28;20241;-80
2023/10/01 03:18:54;;;;;;;6.00;2.83;;;;;;;14.83;73.07;101582.88;5103693;28;20212;-80
2023/10/01 03:22:08;;;;;;;6.03;2.60;;;;;;;14.82;72.78;101597.22;5102507;28;20198;-81
2023/10/01 03:24:09;;;;;;;4.27;2.80;;;;;;;14.79;72.87;101581.34;5105436;28;20299;-80
2023/10/01 03:26:43;;;;;;;4.43;2.37;;;;;;;14.78;72.72;101590.34;5109869;28;20274;-80
2023/10/01 03:29:21;;;;;;;4.47;3.00;;;;;;;14.77;73.00;101598.47;5108430;28;20216;-81
2023/10/01 03:31:53;;;;;;;5.30;2.77;;;;;;;14.74;73.25;101596.84;5108575;28;20201;-81
2023/10/01 03:34:29;;;;;;;5.00;3.00;;;;;;;14.72;73.64;101592.56;5105033;28;20222;-81
2023/10/01 03:36:58;;;;;;;3.17;2.50;;;;;;;14.69;73.74;101592.78;5103863;28;20266;-80
2023/10/01 03:39:26;;;;;;;5.47;2.60;;;;;;;14.68;73.82;101591.91;5108069;28;20772;-81
2023/10/01 03:42:10;;;;;;;5.27;2.57;;;;;;;14.68;74.14;101591.06;5108301;28;20343;-80
2023/10/01 03:44:59;;;;;;;5.77;2.87;;;;;;;14.65;73.98;101591.25;5108845;28;20312;-81
2023/10/01 03:47:26;;;;;;;4.53;2.50;;;;;;;14.62;74.02;101599.50;5106706;28;20206;-81
2023/10/01 03:49:55;;;;;;;4.80;2.60;;;;;;;14.61;74.11;101597.78;5108328;28;20238;-80
2023/10/01 03:52:22;;;;;;;6.47;3.27;;;;;;;14.61;74.47;101592.41;5110729;28;20665;-80
2023/10/01 03:54:54;;;;;;;4.47;2.53;;;;;;;14.59;74.42;101596.03;5107770;28;20227;-80
2023/10/01 03:57:22;;;;;;;9.17;2.67;;;;;;;14.56;75.43;101590.03;5108277;28;20246;-80
2023/10/01 03:59:52;;;;;;;4.70;3.00;;;;;;;14.55;75.30;101597.19;5105771;28;20263;-80
2023/10/01 04:02:28;;;;;;;4.70;2.90;;;;;;;14.53;75.66;101603.63;5105623;28;20260;-80
2023/10/01 04:05:02;;;;;;;3.43;2.40;;;;;;;14.50;75.64;101604.69;5108932;28;20224;-80
2023/10/01 04:07:40;;;;;;;5.80;3.13;;;;;;;14.48;76.03;101600.41;5105757;28;20193;-80
2023/10/01 04:10:13;;;;;;;6.47;3.20;;;;;;;14.47;76.18;101594.19;5106126;28;20201;-80
2023/10/01 04:12:44;;;;;;;4.67;2.93;;;;;;;14.45;76.05;101597.91;5109138;28;20289;-80
2023/10/01 04:15:27;;;;;;;4.50;2.53;;;;;;;14.43;75.88;101599.81;5112861;28;20763;-80
2023/10/01 04:20:36;;;;;;;4.60;2.70;;;;;;;14.42;75.72;101598.97;5104175;28;20197;-80
2023/10/01 04:23:04;;;;;;;5.17;3.07;;;;;;;14.40;75.57;101591.94;5109397;28;20254;-80
2023/10/01 04:25:36;;;;;;;6.63;3.07;;;;;;;14.39;75.26;101588.41;5106112;28;20210;-80
2023/10/01 04:28:05;;;;;;;6.07;2.80;;;;;;;14.39;75.34;101588.41;5109547;28;20222;-80
2023/10/01 04:30:34;;;;;;;5.37;2.87;;;;;;;14.41;74.61;101591.88;5111030;28;20297;-80
2023/10/01 04:33:16;;;;;;;4.37;2.73;;;;;;;14.41;74.98;101597.25;5104042;28;20263;-80
2023/10/01 04:35:51;;;;;;;5.17;2.77;;;;;;;14.40;75.06;101595.50;5107556;28;20234;-80
2023/10/01 04:38:19;;;;;;;5.83;3.00;;;;;;;14.39;74.77;101588.41;5107720;28;20200;-79
2023/10/01 04:40:46;;;;;;;7.27;2.87;;;;;;;14.40;75.30;101584.78;5110151;28;20260;-80
2023/10/01 04:43:16;;;;;;;5.40;3.00;;;;;;;14.43;75.03;101586.41;5107546;28;20225;-80
2023/10/01 04:45:44;;;;;;;5.37;2.60;;;;;;;14.45;75.03;101581.81;5107825;28;20213;-80
2023/10/01 04:48:15;;;;;;;5.07;3.50;;;;;;;14.44;74.93;101570.25;5107812;28;20309;-80
2023/10/01 04:50:43;;;;;;;6.83;3.10;;;;;;;14.45;74.77;101568.44;5110097;28;20244;-81
2023/10/01 04:53:13;;;;;;;4.20;2.70;;;;;;;14.46;75.05;101573.69;5106863;28;20574;-79
2023/10/01 04:55:41;;;;;;;5.17;3.33;;;;;;;14.47;75.05;101575.41;5108982;28;20204;-80
2023/10/01 04:58:08;;;;;;;5.07;3.43;;;;;;;14.47;75.15;101577.22;5108335;28;21142;-80
2023/10/01 05:00:34;;;;;;;8.63;2.97;;;;;;;14.45;75.10;101588.03;5108306;28;20216;-80
2023/10/01 05:03:06;;;;;;;4.73;2.80;;;;;;;14.46;75.13;101595.13;5104563;28;20224;-80
2023/10/01 05:05:36;;;;;;;3.90;2.70;;;;;;;14.47;74.89;101588.81;5109620;28;20259;-81
2023/10/01 05:08:05;;;;;;;3.67;2.87;;;;;;;14.47;74.91;101585.28;5102579;28;20233;-80
2023/10/01 05:10:50;;;;;;;5.83;2.97;;;;;;;14.46;75.15;101584.41;5111242;28;20203;-81
2023/10/01 05:13:19;;;;;;;3.97;2.73;;;;;;;14.43;75.55;101589.97;5108669;28;20254;-80
2023/10/01 05:15:49;;;;;;;4.23;2.77;;;;;;;14.40;75.42;101590.16;5102299;28;20244;-80
2023/10/01 05:18:16;;;;;;;6.83;3.67;;;;;;;14.40;75.52;101591.94;5108211;28;20195;-80
2023/10/01 05:20:43;;;;;;;5.20;3.20;;;;;;;14.40;75.59;101590.16;5110408;28;20659;-81
2023/10/01 05:23:12;;;;;;;5.80;3.07;;;;;;;14.40;75.62;101583.91;5109040;28;20592;-80
2023/10/01 05:25:45;;;;;;;5.00;3.13;;;;;;;14.38;76.08;101583.13;5105829;28;20235;-80
2023/10/01 05:28:23;;;;;;;5.20;2.87;;;;;;;14.37;76.16;101595.66;5108811;28;20745;-81
2023/10/01 05:30:56;;;;;;;5.40;2.90;;;;;;;14.37;76.07;101594.81;5107257;28;20290;-81
2023/10/01 05:33:24;;;;;;;5.13;3.30;;;;;;;14.37;76.03;101600.16;5108766;28;20231;-81
2023/10/01 05:35:57;;;;;;;6.33;3.27;;;;;;;14.36;76.40;101593.94;5110050;28;20206;-81
2023/10/01 05:38:26;;;;;;;5.73;2.70;;;;;;;14.36;76.29;101591.28;5108701;28;20192;-81
2023/10/01 05:40:54;;;;;;;5.37;3.10;;;;;;;14.36;76.64;101593.94;5109182;28;20207;-80
2023/10/01 05:43:23;;;;;;;5.60;3.20;;;;;;;14.36;76.36;101603.81;5109717;28;20228;-80
2023/10/01 05:45:52;;;;;;;6.07;3.10;;;;;;;14.34;76.73;101603.91;5108298;28;20257;-80
2023/10/01 05:48:19;;;;;;;5.80;3.07;;;;;;;14.32;76.91;101607.66;5110118;28;20299;-80
2023/10/01 05:50:46;;;;;;;5.17;3.03;;;;;;;14.33;77.12;101607.53;5110468;28;20263;-81
2023/10/01 05:53:13;;;;;;;5.17;2.80;;;;;;;14.34;77.11;101603.91;5110109;28;20223;-80
2023/10/01 05:55:44;;;;;;;4.60;2.73;;;;;;;14.35;77.32;101605.63;5112360;28;20213;-80
2023/10/01 05:58:21;;;;;;;5.33;3.00;;;;;;;14.36;77.49;101604.66;5104186;28;20273;-80
2023/10/01 06:00:56;;;;;;;10.17;3.30;;;;;;;14.42;77.52;101615.03;5105880;28;20846;-80
2023/10/01 06:03:24;;;;;;;6.83;3.33;;;;;;;14.42;77.27;101601.63;5110936;28;20236;-80
2023/10/01 06:05:57;;;;;;;5.60;3.10;;;;;;;14.44;77.40;101599.72;5107933;28;20200;-80
2023/10/01 06:08:25;;;;;;;4.07;2.87;;;;;;;14.45;77.69;101604.13;5106950;28;20251;-80
2023/10/01 06:11:04;;;;;;;4.83;2.80;;;;;;;14.48;77.50;101595.91;5106994;28;20212;-80
2023/10/01 06:13:31;;;;;;;5.23;2.77;;;;;;;14.53;76.98;101604.47;5108974;28;20764;-80
2023/10/01 06:16:11;;;;;;;4.17;2.63;;;;;;;14.57;77.08;101605.16;5106867;28;20569;-80
2023/10/01 06:18:41;;;;;;;3.80;2.83;;;;;;;14.60;77.50;101596.91;5105855;28;20253;-79
2023/10/01 06:21:08;;;;;;;4.13;2.97;;;;;;;14.67;76.80;101592.00;5108047;28;20204;-79
2023/10/01 06:23:48;;;;;;;6.03;2.97;;;;;;;14.70;76.63;101602.50;5104322;28;20253;-79
2023/10/01 06:26:20;;;;;;;6.40;3.17;;;;;;;14.73;76.96;101605.00;5106840;28;20196;-80
2023/10/01 06:28:47;;;;;;;5.83;3.77;;;;;;;14.74;76.81;101598.69;5104013;28;20581;-80
2023/10/01 06:31:16;;;;;;;4.63;3.13;;;;;;;14.78;76.98;101590.34;5109086;28;20254;-80
2023/10/01 06:33:44;;;;;;;4.60;2.77;;;;;;;14.82;76.80;101588.31;5106408;28;20895;-80
2023/10/01 06:36:19;;;;;;;4.60;3.20;;;;;;;14.84;76.66;101584.59;5107003;28;20215;-80
2023/10/01 06:38:48;;;;;;;5.43;3.23;;;;;;;14.89;76.82;101586.94;5110078;28;20290;-80
2023/10/01 06:41:16;;;;;;;4.43;3.00;;;;;;;14.91;76.69;101585.00;5104878;28;20199;-80
2023/10/01 06:43:48;;;;;;;5.93;3.37;;;;;;;14.94;76.49;101584.81;5101525;28;20233;-81
2023/10/01 06:46:21;;;;;;;9.10;3.17;;;;;;;14.96;76.37;101582.03;5104277;28;20302;-81
2023/10/01 06:48:48;;;;;;;5.60;3.33;;;;;;;15.00;76.11;101575.50;5100855;28;20221;-80
2023/10/01 06:51:15;;;;;;;6.77;3.07;;;;;;;15.02;75.79;101578.94;5106600;28;20689;-82
2023/10/01 06:53:45;;;;;;;4.30;2.70;;;;;;;15.07;75.75;101571.44;5105317;28;20237;-81
2023/10/01 06:56:14;;;;;;;4.83;2.80;;;;;;;15.11;75.29;101573.81;5104710;28;20301;-79
2023/10/01 06:58:41;;;;;;;4.57;2.77;;;;;;;15.14;75.40;101573.59;5103018;28;20221;-81
2023/10/01 07:01:34;;;;;;;4.43;3.40;;;;;;;15.18;75.00;101580.50;5107305;28;20680;-81
2023/10/01 07:03:57;;;;;;;5.70;3.70;;;;;;;15.27;74.93;101581.69;5112892;28;20223;-81
2023/10/01 07:06:25;;;;;;;5.40;3.20;;;;;;;15.35;74.72;101583.84;5108995;28;20210;-81
2023/10/01 07:08:53;;;;;;;4.73;3.07;;;;;;;15.39;74.76;101596.09;5107256;28;20244;-81
2023/10/01 07:11:20;;;;;;;4.60;2.60;;;;;;;15.46;74.08;101602.75;5113833;28;20207;-81
2023/10/01 07:13:52;;;;;;;4.80;2.40;;;;;;;15.53;73.62;101593.31;5108400;28;20222;-81
2023/10/01 07:16:35;;;;;;;4.50;2.63;;;;;;;15.60;73.01;101594.63;5107921;28;20199;-81
2023/10/01 07:19:03;;;;;;;5.57;2.47;;;;;;;15.62;72.63;101600.75;5112848;28;20647;-83
2023/10/01 07:21:31;;;;;;;6.43;2.97;;;;;;;15.62;73.18;101608.81;5114147;28;20205;-81
2023/10/01 07:23:58;;;;;;;6.00;2.93;;;;;;;15.66;73.60;101607.66;5111703;28;20269;-82
2023/10/01 07:26:25;;;;;;;7.73;2.83;;;;;;;15.70;73.66;101603.78;5112067;28;20235;-82
2023/10/01 07:28:55;;;;;;;5.23;3.10;;;;;;;15.75;73.86;101600.78;5108637;28;20253;-82
2023/10/01 07:31:25;;;;;;;4.20;2.90;;;;;;;15.78;73.06;101603.22;5113501;28;20197;-81
2023/10/01 07:33:54;;;;;;;7.40;3.20;;;;;;;15.83;72.53;101603.78;5109251;28;20283;-82
2023/10/01 07:36:23;;;;;;;5.63;3.03;;;;;;;15.86;72.61;101600.88;5111560;28;20215;-81
2023/10/01 07:38:52;;;;;;;4.23;2.73;;;;;;;15.93;72.48;101608.41;5112688;28;20919;-82
2023/10/01 07:41:20;;;;;;;5.30;2.70;;;;;;;15.96;72.03;101605.47;5113048;28;20283;-82
2023/10/01 07:43:49;;;;;;;5.53;2.80;;;;;;;15.98;71.99;101598.19;5113229;28;20221;-82
2023/10/01 07:46:18;;;;;;;5.00;2.63;;;;;;;16.03;71.77;101600.53;5112504;28;20200;-80
2023/10/01 07:48:49;;;;;;;4.70;2.77;;;;;;;16.06;71.72;101603.03;5112826;28;20196;-81
2023/10/01 07:51:26;;;;;;;5.27;2.50;;;;;;;16.11;71.01;101606.25;5113288;28;20733;-82
2023/10/01 07:53:53;;;;;;;7.70;3.20;;;;;;;16.16;70.90;101611.28;5112130;28;20250;-81
2023/10/01 07:56:22;;;;;;;3.37;2.53;;;;;;;16.18;71.11;101607.50;5114099;28;20763;-81
2023/10/01 07:58:56;;;;;;;6.70;2.73;;;;;;;16.19;71.00;101613.75;5110894;28;20421;-81
2023/10/01 08:01:42;;;;;;;5.37;2.73;;;;;;;16.24;70.18;101614.28;5112846;28;20210;-82
2023/10/01 08:04:38;;;;;;;5.00;2.70;;;;;;;16.23;70.43;101618.81;5105894;28;20224;-81
2023/10/01 08:07:05;;;;;;;4.43;2.70;;;;;;;16.25;70.19;101610.63;5113571;28;20198;-81
2023/10/01 08:09:33;;;;;;;5.13;2.67;;;;;;;16.28;70.57;101608.59;5101890;28;20285;-81
2023/10/01 08:12:05;;;;;;;3.87;2.57;;;;;;;16.33;70.53;101605.53;5109219;28;20211;-81
2023/10/01 08:14:33;;;;;;;4.87;2.87;;;;;;;16.38;70.13;101613.28;5106712;28;20233;-84
2023/10/01 08:17:00;;;;;;;5.97;3.10;;;;;;;16.42;69.94;101612.97;5109971;28;20207;-83
2023/10/01 08:19:44;;;;;;;5.80;2.77;;;;;;;16.44;70.00;101613.72;5104941;28;20736;-82
2023/10/01 08:22:14;;;;;;;3.87;2.33;;;;;;;16.47;70.08;101604.56;5104894;28;20222;-83
2023/10/01 08:24:45;;;;;;;4.10;2.80;;;;;;;16.52;70.17;101605.94;5107102;28;20233;-82
2023/10/01 08:27:14;;;;;;;4.17;2.77;;;;;;;16.58;69.76;101610.00;5108341;28;20629;-82
2023/10/01 08:32:23;;;;;;;4.43;2.70;;;;;;;16.65;68.78;101612.19;5107793;28;20197;-80
2023/10/01 08:35:03;;;;;;;5.27;2.93;;;;;;;16.68;69.29;101613.75;5098416;28;20225;-82
2023/10/01 08:37:32;;;;;;;4.17;2.10;;;;;;;16.72;69.40;101620.63;5107240;28;20204;-83
2023/10/01 08:39:57;;;;;;;4.53;2.97;;;;;;;16.75;69.22;101611.47;5105814;28;20209;-83
2023/10/01 08:42:28;;;;;;;4.23;2.57;;;;;;;16.78;69.63;101616.66;5106901;28;20193;-83
2023/10/01 08:45:02;;;;;;;4.43;2.80;;;;;;;16.80;69.44;101620.09;5111834;28;20224;-83
2023/10/01 08:47:31;;;;;;;4.73;2.87;;;;;;;16.81;69.01;101611.03;5109066;28;20291;-82
2023/10/01 08:50:18;;;;;;;5.73;3.10;;;;;;;16.84;68.57;101611.66;5104964;28;20788;-84
2023/10/01 08:52:55;;;;;;;6.73;3.33;;;;;;;16.86;68.56;101615.09;5101225;28;20700;-81
2023/10/01 08:55:35;;;;;;;4.30;2.53;;;;;;;16.89;68.87;101622.06;5104791;28;20209;-83
2023/10/01 08:58:14;;;;;;;6.90;3.03;;;;;;;16.96;68.97;101626.03;5100293;28;20213;-81
2023/10/01 09:00:48;;;;;;;5.20;2.80;;;;;;;16.99;68.77;101625.81;5108638;28;20191;-84
2023/10/01 09:03:26;;;;;;;3.57;2.47;;;;;;;17.07;68.34;101623.41;5103229;28;20240;-85
2023/10/01 09:06:03;;;;;;;5.87;2.80;;;;;;;17.09;68.57;101626.84;5105524;28;20194;-84
2023/10/01 09:08:31;;;;;;;4.20;2.67;;;;;;;17.12;68.21;101626.59;5106163;28;20200;-82
2023/10/01 09:10:59;;;;;;;4.40;2.47;;;;;;;17.19;67.83;101621.63;5105542;28;20291;-84
2023/10/01 09:13:30;;;;;;;5.03;2.60;;;;;;;17.18;67.55;101631.53;5107070;28;20229;-85
2023/10/01 09:16:10;;;;;;;4.53;2.50;;;;;;;17.20;67.93;101626.88;5107315;28;20234;-83
2023/10/01 09:18:52;;;;;;;5.23;2.50;;;;;;;17.22;67.68;101633.00;5099769;28;20278;-82
2023/10/01 09:21:28;;;;;;;5.37;3.00;;;;;;;17.30;67.28;101630.59;5108374;28;20190;-83
2023/10/01 09:23:55;;;;;;;7.50;3.33;;;;;;;17.34;67.10;101632.09;5106856;28;20254;-83
2023/10/01 09:26:42;;;;;;;5.73;3.07;;;;;;;17.35;67.09;101632.94;5110178;28;20202;-81
2023/10/01 09:29:21;;;;;;;4.40;2.60;;;;;;;17.35;67.42;101625.72;5108651;28;20201;-83
2023/10/01 09:31:56;;;;;;;5.83;2.93;;;;;;;17.35;67.41;101633.81;5105048;28;20709;-82
2023/10/01 09:34:33;;;;;;;4.50;2.73;;;;;;;17.39;67.52;101634.41;5110566;28;20252;-84
2023/10/01 09:37:17;;;;;;;6.77;3.20;;;;;;;17.43;67.79;101626.97;5111676;28;20202;-83
2023/10/01 09:39:44;;;;;;;4.27;2.63;;;;;;;17.45;67.26;101622.31;5106097;28;20268;-82
2023/10/01 09:44:53;;;;;;;4.80;2.80;;;;;;;17.61;66.83;101612.06;5106858;28;20229;-83
2023/10/01 09:47:24;;;;;;;5.60;3.10;;;;;;;17.66;66.64;101620.69;5108506;28;20208;-83
2023/10/01 09:49:52;;;;;;;6.20;3.17;;;;;;;17.72;66.82;101625.63;5105833;28;20234;-83
2023/10/01 09:52:30;;;;;;;6.93;3.07;;;;;;;17.79;66.34;101626.84;5107254;28;20198;-84
2023/10/01 09:55:03;;;;;;;6.37;2.93;;;;;;;17.83;66.20;101624.78;5108512;28;20230;-84
2023/10/01 09:57:34;;;;;;;5.73;3.23;;;;;;;17.89;65.78;101625.16;5107124;28;20209;-83
2023/10/01 10:00:14;;;;;;;6.73;2.90;;;;;;;17.93;65.77;101626.63;5106344;28;20197;-83
2023/10/01 10:02:51;;;;;;;5.77;2.80;;;;;;;17.97;65.81;101628.09;5104426;28;20583;-83
2023/10/01 10:05:24;;;;;;;7.10;3.47;;;;;;;18.04;65.99;101625.78;5106643;28;20200;-84
2023/10/01 10:07:53;;;;;;;4.70;2.57;;;;;;;18.08;65.72;101621.00;5105245;28;20274;-84
2023/10/01 10:10:25;;;;;;;6.17;3.10;;;;;;;18.10;65.03;101622.56;5109218;28;20230;-82
2023/10/01 10:12:56;;;;;;;6.60;3.00;;;;;;;18.16;65.20;101624.78;5105274;28;20210;-84
2023/10/01 10:15:57;;;;;;;5.83;3.23;;;;;;;18.22;65.30;101624.31;5107062;28;20293;-83
2023/10/01 10:18:25;;;;;;;5.50;2.77;;;;;;;18.26;65.08;101614.16;5105749;28;20234;-83
2023/10/01 10:20:58;;;;;;;8.10;3.80;;;;;;;18.31;65.02;101620.00;5100945;28;20205;-83
2023/10/01 10:23:30;;;;;;;7.50;3.67;;;;;;;18.37;64.64;101609.59;5108952;28;20223;-84
2023/10/01 10:26:13;;;;;;;7.37;3.00;;;;;;;18.42;64.61;101597.59;5105334;28;20627;-84
2023/10/01 10:28:55;;;;;;;8.87;2.97;;;;;;;18.46;65.25;101594.50;5106143;28;20719;-82
2023/10/01 10:31:33;;;;;;;4.30;2.77;;;;;;;18.55;65.26;101596.44;5106534;28;20235;-81
2023/10/01 10:36:55;;;;;;;6.33;3.03;;;;;;;18.71;64.74;101580.75;5110135;28;20262;-83
2023/10/01 10:40:13;;;;;;;5.40;3.17;;;;;;;18.77;64.69;101589.31;5102664;28;20196;-82
2023/10/01 10:42:41;;;;;;;8.00;3.33;;;;;;;18.81;64.75;101588.09;5105913;28;20200;-83
2023/10/01 10:45:21;;;;;;;8.07;3.87;;;;;;;18.84;65.30;101582.41;5102164;28;20217;-83
2023/10/01 10:47:59;;;;;;;7.07;2.90;;;;;;;18.90;64.88;101590.00;5107251;28;20238;-83
2023/10/01 10:50:49;;;;;;;7.10;3.70;;;;;;;18.93;64.79;101590.63;5104003;28;20227;-82
2023/10/01 10:53:17;;;;;;;6.37;3.30;;;;;;;19.00;64.87;101594.50;5099336;28;20656;-83
2023/10/01 10:55:53;;;;;;;8.67;3.40;;;;;;;19.05;64.40;101588.72;5106970;28;20204;-83
2023/10/01 10:58:24;;;;;;;7.50;3.63;;;;;;;19.05;64.58;101588.72;5105020;28;20200;-84
2023/10/01 11:00:51;;;;;;;6.60;3.70;;;;;;;19.12;65.15;101591.78;5098955;28;20226;-82
2023/10/01 11:03:38;;;;;;;6.70;3.43;;;;;;;19.18;64.51;101585.84;5107921;28;20230;-83
2023/10/01 11:06:18;;;;;;;6.80;3.30;;;;;;;19.26;64.68;101588.75;5104369;28;20256;-84
2023/10/01 11:08:51;;;;;;;6.57;3.60;;;;;;;19.30;64.34;101580.28;5109301;28;20207;-85
2023/10/01 11:11:27;;;;;;;7.40;3.37;;;;;;;19.36;64.17;101574.31;5103160;28;20228;-84
2023/10/01 11:14:00;;;;;;;7.70;3.37;;;;;;;19.42;63.78;101579.22;5105976;28;20237;-80
2023/10/01 11:16:37;;;;;;;7.07;3.97;;;;;;;19.42;63.92;101583.75;5105245;28;20200;-81
2023/10/01 11:19:13;;;;;;;8.40;4.27;;;;;;;19.45;64.31;101577.25;5103923;28;20211;-81
2023/10/01 11:21:54;;;;;;;7.20;3.50;;;;;;;19.49;63.66;101562.47;5109342;28;20218;-81
2023/10/01 11:24:24;;;;;;;8.73;4.03;;;;;;;19.54;63.94;101571.91;5110871;28;20312;-82
2023/10/01 11:27:22;;;;;;;7.43;3.97;;;;;;;19.60;64.41;101575.94;5108206;28;20201;-81
2023/10/01 11:30:20;;;;;;;6.43;3.67;;;;;;;19.66;64.22;101572.72;5061557;28;20252;-83
2023/10/01 11:33:12;;;;;;;6.90;3.70;;;;;;;19.75;64.02;101582.72;5107532;28;20478;-82
2023/10/01 11:35:41;;;;;;;8.83;3.90;;;;;;;19.81;63.73;101578.63;5109928;28;20226;-82
2023/10/01 11:38:09;;;;;;;8.15;4.40;;;;;;;19.85;63.26;101580.06;5107172;28;20269;-82
2023/10/01 11:43:32;;;;;;;7.55;3.80;;;;;;;19.99;63.69;101560.78;5105093;28;20231;-82
2023/10/01 11:46:20;;;;;;;9.20;3.90;;;;;;;20.05;63.10;101561.13;5104353;28;20214;-81
2023/10/01 11:48:57;;;;;;;10.10;4.27;;;;;;;20.06;62.38;101557.38;5113974;28;20655;-80
2023/10/01 11:51:31;;;;;;;9.00;3.83;;;;;;;20.06;63.07;101557.38;5111305;28;20271;-81
2023/10/01 11:54:09;;;;;;;8.60;4.33;;;;;;;20.08;62.74;101550.00;5112144;28;20231;-81
2023/10/01 11:56:37;;;;;;;9.55;4.85;;;;;;;20.13;63.00;101551.44;5101537;28;20203;-82
2023/10/01 11:59:05;;;;;;;8.13;3.88;;;;;;;20.13;63.10;101554.13;5106551;28;20291;-82
2023/10/01 12:01:39;;;;;;;10.60;4.38;;;;;;;20.17;63.18;101542.91;5111275;28;20202;-81
2023/10/01 12:04:07;;;;;;;8.18;4.28;;;;;;;20.21;62.96;101540.81;5112241;28;20567;-81
2023/10/01 12:06:35;;;;;;;9.63;4.88;;;;;;;20.24;62.89;101540.53;5105768;28;20593;-82